Time;durP1;ratioP1;P1;durP2;ratioP2;P2;SDS_P1;SDS_P2;PMS_P1;PMS_P2;Temp;Humidity;BMP_temperature;BMP_pressure;BME280_temperature;BME280_humidity;BME280_pressure;Samples;Min_cycle;Max_cycle;Signal;HPM_P1;HPM_P2
2021/12/10 00:01:35;;;;;;;1.40;1.20;;;13.90;29.60;;;;;;5057272;28;20201;-72
2021/12/10 00:04:04;;;;;;;1.33;1.23;;;13.90;29.50;;;;;;5056909;28;20676;-72
2021/12/10 00:06:34;;;;;;;1.13;1.02;;;13.90;29.50;;;;;;5056209;28;20271;-72
2021/12/10 00:09:06;;;;;;;1.00;1.00;;;13.90;29.50;;;;;;5056559;28;20745;-72
2021/12/10 00:11:38;;;;;;;1.30;1.20;;;13.80;29.40;;;;;;5070587;28;20236;-72
2021/12/10 00:14:07;;;;;;;1.33;1.23;;;13.80;29.40;;;;;;5076804;28;20208;-72
2021/12/10 00:16:36;;;;;;;1.75;1.30;;;13.80;29.50;;;;;;5076806;28;20216;-71
2021/12/10 00:19:17;;;;;;;1.58;1.15;;;13.80;29.50;;;;;;5076226;28;20208;-72
2021/12/10 00:21:46;;;;;;;1.33;1.23;;;13.80;29.50;;;;;;5076679;28;20204;-72
2021/12/10 00:24:15;;;;;;;1.40;1.30;;;13.80;29.60;;;;;;5076279;28;20218;-72
2021/12/10 00:26:45;;;;;;;1.73;1.48;;;13.80;29.60;;;;;;5075936;28;20223;-72
2021/12/10 00:29:15;;;;;;;1.35;1.20;;;13.80;29.60;;;;;;5077063;28;20455;-72
2021/12/10 00:31:49;;;;;;;1.38;1.27;;;13.80;29.60;;;;;;5076206;28;20325;-72
2021/12/10 00:34:23;;;;;;;1.40;1.30;;;13.80;29.60;;;;;;5057696;28;20201;-72
2021/12/10 00:36:52;;;;;;;1.40;1.17;;;13.70;29.80;;;;;;5056718;28;20211;-72
2021/12/10 00:39:25;;;;;;;1.40;1.30;;;13.70;29.50;;;;;;5056155;28;20205;-72
2021/12/10 00:41:57;;;;;;;1.20;1.10;;;13.70;29.60;;;;;;5056398;28;20212;-72
2021/12/10 00:44:25;;;;;;;1.10;1.08;;;13.70;29.60;;;;;;5055520;28;20623;-72
2021/12/10 00:46:52;;;;;;;1.50;1.40;;;13.70;29.60;;;;;;5056437;28;20236;-72
2021/12/10 00:49:20;;;;;;;1.30;1.20;;;13.70;29.60;;;;;;5055901;28;20468;-72
2021/12/10 00:51:48;;;;;;;1.83;1.45;;;13.70;29.60;;;;;;5056136;28;20500;-72
2021/12/10 00:54:16;;;;;;;1.27;1.17;;;13.70;29.60;;;;;;5055968;28;20258;-72
2021/12/10 00:56:45;;;;;;;2.05;1.50;;;13.70;29.70;;;;;;5056181;28;20204;-72
2021/12/10 00:59:15;;;;;;;2.15;1.40;;;13.70;29.70;;;;;;5056179;28;20205;-72
2021/12/10 01:01:43;;;;;;;1.85;1.40;;;13.70;29.70;;;;;;5068830;28;20209;-72
2021/12/10 01:04:15;;;;;;;1.50;1.40;;;13.70;29.70;;;;;;5055999;28;20531;-72
2021/12/10 01:06:46;;;;;;;1.73;1.63;;;13.70;29.60;;;;;;5055973;28;20206;-72
2021/12/10 01:09:16;;;;;;;1.98;1.40;;;13.70;29.70;;;;;;5055582;28;20613;-72
2021/12/10 01:11:49;;;;;;;1.73;1.48;;;13.70;29.70;;;;;;5055703;28;20247;-72
2021/12/10 01:14:30;;;;;;;1.52;1.40;;;13.60;29.60;;;;;;5055744;28;20541;-72
2021/12/10 01:25:33;;;;;;;1.50;1.38;;;13.60;29.60;;;;;;5054785;28;20275;-72
2021/12/10 01:28:00;;;;;;;1.50;1.40;;;13.60;29.60;;;;;;5054592;28;20197;-72
2021/12/10 01:30:33;;;;;;;1.60;1.48;;;13.60;29.70;;;;;;5044705;28;20224;-72
2021/12/10 01:33:03;;;;;;;1.80;1.50;;;13.60;29.60;;;;;;5055402;28;20257;-73
2021/12/10 01:35:33;;;;;;;1.52;1.42;;;13.50;29.60;;;;;;5055384;28;20220;-72
2021/12/10 01:38:04;;;;;;;2.15;1.70;;;13.60;29.70;;;;;;5054894;28;20209;-72
2021/12/10 01:40:32;;;;;;;1.40;1.30;;;13.60;29.60;;;;;;5054805;28;20666;-72
2021/12/10 01:43:07;;;;;;;1.70;1.60;;;13.50;29.60;;;;;;5055136;28;20224;-72
2021/12/10 01:45:45;;;;;;;2.00;1.63;;;13.50;29.60;;;;;;5055692;28;20220;-72
2021/12/10 01:48:16;;;;;;;1.70;1.55;;;13.50;29.60;;;;;;5055527;28;20591;-73
2021/12/10 01:50:43;;;;;;;1.83;1.48;;;13.50;29.60;;;;;;5055116;28;20666;-73
2021/12/10 01:53:15;;;;;;;1.40;1.30;;;13.50;29.60;;;;;;5055013;28;20562;-72
2021/12/10 01:55:46;;;;;;;1.40;1.30;;;13.50;29.60;;;;;;5049774;28;20201;-72
2021/12/10 01:58:17;;;;;;;1.73;1.55;;;13.50;29.60;;;;;;5059244;28;20209;-73
2021/12/10 02:00:51;;;;;;;2.03;1.55;;;13.50;29.60;;;;;;5059235;28;20208;-73
2021/12/10 02:03:19;;;;;;;2.15;1.80;;;13.50;29.60;;;;;;5059187;28;20249;-72
2021/12/10 02:05:47;;;;;;;1.40;1.30;;;13.40;29.60;;;;;;5059104;28;20209;-72
2021/12/10 02:08:14;;;;;;;1.88;1.70;;;13.40;29.60;;;;;;5059289;28;20209;-73
2021/12/10 02:10:42;;;;;;;1.50;1.40;;;13.40;29.60;;;;;;5065922;28;20236;-72
2021/12/10 02:13:09;;;;;;;1.52;1.40;;;13.40;29.60;;;;;;5078895;28;20236;-72
2021/12/10 02:15:38;;;;;;;1.83;1.50;;;13.40;29.60;;;;;;5079539;28;20208;-72
2021/12/10 02:18:09;;;;;;;1.80;1.70;;;13.40;29.60;;;;;;5079267;28;20204;-72
2021/12/10 02:20:48;;;;;;;2.10;1.90;;;13.40;29.70;;;;;;5078969;28;20208;-72
2021/12/10 02:23:16;;;;;;;2.15;1.55;;;13.40;29.60;;;;;;5078654;28;20261;-72
2021/12/10 02:25:43;;;;;;;2.00;1.70;;;13.40;29.60;;;;;;5079445;28;20211;-72
2021/12/10 02:28:13;;;;;;;1.98;1.80;;;13.40;29.60;;;;;;5078726;28;20602;-72
2021/12/10 02:30:42;;;;;;;1.90;1.70;;;13.40;29.70;;;;;;5078798;28;20716;-72
2021/12/10 02:33:10;;;;;;;1.90;1.80;;;13.40;29.60;;;;;;5078828;28;20738;-72
2021/12/10 02:35:37;;;;;;;2.00;1.80;;;13.40;29.60;;;;;;5078541;28;20279;-72
2021/12/10 02:38:07;;;;;;;1.80;1.70;;;13.30;29.60;;;;;;5078951;28;20603;-72
2021/12/10 02:40:37;;;;;;;1.92;1.80;;;13.30;29.60;;;;;;5078545;28;20226;-73
2021/12/10 02:43:08;;;;;;;2.05;1.83;;;13.40;29.60;;;;;;5078915;28;20200;-73
2021/12/10 02:45:37;;;;;;;1.70;1.52;;;13.30;29.60;;;;;;5077961;28;20196;-72
2021/12/10 02:48:06;;;;;;;2.38;1.83;;;13.30;29.60;;;;;;5078498;28;20200;-72
2021/12/10 02:50:34;;;;;;;1.92;1.83;;;13.30;29.60;;;;;;5078371;28;20208;-72
2021/12/10 02:53:02;;;;;;;2.17;1.70;;;13.30;29.60;;;;;;5077969;28;20286;-72
2021/12/10 02:55:32;;;;;;;1.67;1.58;;;13.30;29.70;;;;;;5078059;28;20239;-72
2021/12/10 02:58:05;;;;;;;2.10;1.90;;;13.30;29.60;;;;;;5078287;28;20254;-72
2021/12/10 03:00:37;;;;;;;1.98;1.70;;;13.30;29.60;;;;;;5078354;28;20204;-72
2021/12/10 03:03:04;;;;;;;1.60;1.50;;;13.30;29.60;;;;;;5078297;28;20200;-72
2021/12/10 03:05:32;;;;;;;2.05;1.50;;;13.30;29.60;;;;;;5077944;28;20205;-71
2021/12/10 03:07:59;;;;;;;1.92;1.70;;;13.30;29.60;;;;;;5076287;28;20478;-72
2021/12/10 03:10:31;;;;;;;1.83;1.58;;;13.30;29.60;;;;;;5077437;28;20240;-72
2021/12/10 03:12:58;;;;;;;2.10;1.90;;;13.20;29.50;;;;;;5078199;28;20508;-72
2021/12/10 03:15:29;;;;;;;1.85;1.70;;;13.20;29.60;;;;;;5077726;28;20204;-72
2021/12/10 03:17:58;;;;;;;1.70;1.60;;;13.20;29.60;;;;;;5077840;28;20223;-73
2021/12/10 03:20:29;;;;;;;1.80;1.67;;;13.20;29.60;;;;;;5077842;28;20220;-72
2021/12/10 03:22:56;;;;;;;1.77;1.67;;;13.20;29.60;;;;;;5077827;28;20200;-72
2021/12/10 03:25:24;;;;;;;1.77;1.67;;;13.20;29.60;;;;;;5077215;28;20208;-72
2021/12/10 03:27:53;;;;;;;2.00;1.80;;;13.20;29.60;;;;;;5077274;28;20208;-72
2021/12/10 03:30:23;;;;;;;1.73;1.45;;;13.20;29.60;;;;;;5077809;28;20204;-72
2021/12/10 03:32:50;;;;;;;2.20;2.00;;;13.10;29.50;;;;;;5077858;28;20228;-72
2021/12/10 03:35:22;;;;;;;1.92;1.67;;;13.20;29.60;;;;;;5077740;28;20204;-72
2021/12/10 03:37:50;;;;;;;1.88;1.73;;;13.20;29.50;;;;;;5077310;28;20248;-72
2021/12/10 03:40:19;;;;;;;1.80;1.50;;;13.10;29.60;;;;;;5066088;28;20330;-72
2021/12/10 03:42:49;;;;;;;1.60;1.50;;;13.20;29.60;;;;;;5076483;28;20201;-72
2021/12/10 03:45:19;;;;;;;1.77;1.52;;;13.20;29.60;;;;;;5077274;28;20603;-72
2021/12/10 03:47:47;;;;;;;2.00;1.65;;;13.10;29.50;;;;;;5077446;28;20208;-72
2021/12/10 03:50:25;;;;;;;1.70;1.60;;;13.10;30.00;;;;;;5077381;28;20215;-72
2021/12/10 03:52:53;;;;;;;1.83;1.73;;;13.10;29.50;;;;;;5077240;28;20713;-72
2021/12/10 03:55:22;;;;;;;2.00;1.80;;;13.10;29.50;;;;;;5076957;28;20204;-72
2021/12/10 03:57:51;;;;;;;1.60;1.50;;;13.10;29.50;;;;;;5077060;28;20596;-72
2021/12/10 04:00:23;;;;;;;1.73;1.60;;;13.10;29.50;;;;;;5077200;28;20257;-72
2021/12/10 04:02:51;;;;;;;1.73;1.48;;;13.10;29.50;;;;;;5077150;28;20211;-72
2021/12/10 04:05:19;;;;;;;2.08;1.88;;;13.10;29.50;;;;;;5077443;28;20218;-72
2021/12/10 04:07:47;;;;;;;1.98;1.85;;;13.10;29.50;;;;;;5076603;28;20274;-72
2021/12/10 04:10:18;;;;;;;2.05;1.58;;;13.10;29.50;;;;;;5076776;28;20262;-72
2021/12/10 04:12:46;;;;;;;1.75;1.60;;;13.00;29.40;;;;;;5076892;28;20231;-72
2021/12/10 04:15:18;;;;;;;2.15;1.70;;;13.10;29.50;;;;;;5076591;28;20208;-72
2021/12/10 04:17:49;;;;;;;1.55;1.45;;;13.00;29.40;;;;;;5076489;28;20204;-72
2021/12/10 04:20:20;;;;;;;1.55;1.45;;;13.00;29.40;;;;;;5076431;28;20244;-72
2021/12/10 04:22:49;;;;;;;1.52;1.42;;;13.00;29.50;;;;;;5076589;28;20201;-72
2021/12/10 04:25:19;;;;;;;1.80;1.70;;;13.00;29.50;;;;;;5075577;28;20254;-73
2021/12/10 04:27:49;;;;;;;1.60;1.50;;;13.00;29.40;;;;;;5076164;28;20306;-72
2021/12/10 04:30:17;;;;;;;1.60;1.50;;;13.00;29.50;;;;;;5075550;28;20200;-72
2021/12/10 04:32:47;;;;;;;1.70;1.60;;;13.00;30.00;;;;;;5076121;28;20232;-72
2021/12/10 04:35:18;;;;;;;1.75;1.40;;;13.00;29.50;;;;;;5076125;28;20596;-72
2021/12/10 04:37:47;;;;;;;1.40;1.30;;;13.00;29.40;;;;;;5076385;28;20216;-72
2021/12/10 04:40:17;;;;;;;1.42;1.33;;;13.00;29.40;;;;;;5076188;28;20256;-72
2021/12/10 04:42:46;;;;;;;1.60;1.50;;;13.00;29.40;;;;;;5075630;28;20200;-71
2021/12/10 04:45:16;;;;;;;1.50;1.40;;;13.00;29.30;;;;;;5075859;28;20701;-72
2021/12/10 04:47:44;;;;;;;1.70;1.60;;;13.00;29.50;;;;;;5075780;28;20315;-72
2021/12/10 04:50:15;;;;;;;1.70;1.60;;;13.00;29.40;;;;;;5075422;28;20672;-72
2021/12/10 04:52:43;;;;;;;1.50;1.40;;;13.00;29.50;;;;;;5075922;28;20339;-72
2021/12/10 04:55:13;;;;;;;1.60;1.50;;;13.00;29.50;;;;;;5076033;28;20208;-72
2021/12/10 04:57:41;;;;;;;1.60;1.50;;;13.00;29.50;;;;;;5076665;28;20212;-72
2021/12/10 05:00:13;;;;;;;1.60;1.50;;;13.00;29.40;;;;;;5076217;28;20243;-72
2021/12/10 05:02:41;;;;;;;1.50;1.40;;;12.90;29.40;;;;;;5075720;28;20207;-72
2021/12/10 05:05:10;;;;;;;1.50;1.40;;;12.90;29.50;;;;;;5076627;28;20212;-72
2021/12/10 05:07:39;;;;;;;1.52;1.42;;;12.90;29.40;;;;;;5075723;28;20207;-72
2021/12/10 05:10:10;;;;;;;1.17;1.08;;;12.90;29.40;;;;;;5075743;28;20303;-72
2021/12/10 05:12:37;;;;;;;1.50;1.40;;;12.90;29.40;;;;;;5075768;28;20286;-73
2021/12/10 05:15:08;;;;;;;1.50;1.40;;;12.90;29.40;;;;;;5075669;28;20212;-73
2021/12/10 05:17:36;;;;;;;1.40;1.30;;;12.90;29.50;;;;;;5076364;28;20500;-73
2021/12/10 05:20:06;;;;;;;1.70;1.48;;;12.90;29.40;;;;;;5076176;28;20204;-73
2021/12/10 05:22:34;;;;;;;1.50;1.40;;;12.90;29.40;;;;;;5076074;28;20200;-73
2021/12/10 05:25:03;;;;;;;1.33;1.23;;;12.90;29.40;;;;;;5075864;28;20212;-72
2021/12/10 05:27:31;;;;;;;1.40;1.30;;;12.90;29.40;;;;;;5075788;28;20204;-71
2021/12/10 05:29:58;;;;;;;1.30;1.20;;;12.90;29.40;;;;;;5075125;28;20204;-72
2021/12/10 05:32:25;;;;;;;1.50;1.40;;;12.90;29.40;;;;;;5075207;28;20548;-72
2021/12/10 05:34:54;;;;;;;1.50;1.40;;;12.90;29.50;;;;;;5075498;28;20262;-72
2021/12/10 05:37:22;;;;;;;1.42;1.33;;;12.80;29.40;;;;;;5075675;28;20204;-71
2021/12/10 05:39:50;;;;;;;1.40;1.30;;;12.80;29.40;;;;;;5074637;28;20265;-72
2021/12/10 05:42:19;;;;;;;1.40;1.30;;;12.80;29.40;;;;;;5075310;28;20219;-72
2021/12/10 05:44:47;;;;;;;1.52;1.42;;;12.80;29.30;;;;;;5075238;28;20212;-72
2021/12/10 05:47:14;;;;;;;1.50;1.40;;;12.80;29.40;;;;;;5075085;28;20219;-72
2021/12/10 05:49:41;;;;;;;1.55;1.42;;;12.80;29.40;;;;;;5075316;28;20204;-72
2021/12/10 05:52:09;;;;;;;1.45;1.35;;;12.80;29.40;;;;;;5074551;28;20204;-72
2021/12/10 05:54:37;;;;;;;1.40;1.30;;;12.80;29.40;;;;;;5063566;28;20232;-72
2021/12/10 05:57:05;;;;;;;1.30;1.20;;;12.80;29.30;;;;;;5074011;28;20208;-72
2021/12/10 05:59:34;;;;;;;1.20;1.10;;;12.80;29.40;;;;;;5074494;28;20215;-72
2021/12/10 06:02:01;;;;;;;1.55;1.45;;;12.80;29.50;;;;;;5074532;28;20211;-72
2021/12/10 06:04:29;;;;;;;1.40;1.30;;;12.80;29.40;;;;;;5074531;28;20204;-71
2021/12/10 06:06:57;;;;;;;1.40;1.30;;;12.80;29.40;;;;;;5074688;28;20208;-72
2021/12/10 06:09:25;;;;;;;1.30;1.20;;;12.80;29.40;;;;;;5073375;28;20262;-72
2021/12/10 06:11:53;;;;;;;1.30;1.20;;;12.80;29.40;;;;;;5073652;28;20270;-72
2021/12/10 06:14:20;;;;;;;1.50;1.40;;;12.80;29.40;;;;;;5073205;28;20627;-72
2021/12/10 06:16:52;;;;;;;1.42;1.33;;;12.80;29.40;;;;;;5072953;28;20211;-72
2021/12/10 06:19:20;;;;;;;1.40;1.30;;;12.70;29.30;;;;;;5073681;28;20205;-72
2021/12/10 06:21:48;;;;;;;1.38;1.27;;;12.70;29.30;;;;;;5073243;28;20205;-72
2021/12/10 06:24:16;;;;;;;1.40;1.30;;;12.70;29.30;;;;;;5073456;28;20192;-72
2021/12/10 06:26:44;;;;;;;1.30;1.20;;;12.70;29.30;;;;;;5073437;28;20212;-72
2021/12/10 06:29:11;;;;;;;1.55;1.45;;;12.70;29.40;;;;;;5073749;28;20205;-72
2021/12/10 06:31:38;;;;;;;1.40;1.30;;;12.70;29.30;;;;;;5074217;28;20215;-72
2021/12/10 06:34:07;;;;;;;1.40;1.30;;;12.70;29.40;;;;;;5073673;28;20220;-72
2021/12/10 06:36:36;;;;;;;1.60;1.50;;;12.70;29.50;;;;;;5073766;28;20301;-71
2021/12/10 06:39:04;;;;;;;1.40;1.30;;;12.70;29.40;;;;;;5073848;28;20269;-72
2021/12/10 06:41:32;;;;;;;1.30;1.20;;;12.70;29.40;;;;;;5074189;28;20235;-72
2021/12/10 06:44:01;;;;;;;1.40;1.30;;;12.70;29.40;;;;;;5077564;28;20196;-73
2021/12/10 06:46:28;;;;;;;1.13;1.10;;;12.70;29.40;;;;;;5077229;28;20596;-72
2021/12/10 06:48:55;;;;;;;1.40;1.30;;;12.70;29.40;;;;;;5077545;28;20290;-72
2021/12/10 06:51:24;;;;;;;1.45;1.30;;;12.70;29.40;;;;;;5077616;28;20220;-72
2021/12/10 06:53:51;;;;;;;1.60;1.50;;;12.70;29.50;;;;;;5077492;28;20611;-72
2021/12/10 06:56:20;;;;;;;1.58;1.48;;;12.70;29.40;;;;;;5077710;28;20208;-72
2021/12/10 06:58:47;;;;;;;1.38;1.27;;;12.60;29.30;;;;;;5076790;28;20204;-71
2021/12/10 07:01:21;;;;;;;1.30;1.20;;;12.60;29.30;;;;;;5077097;28;20208;-72
2021/12/10 07:03:48;;;;;;;1.30;1.20;;;12.70;29.40;;;;;;5077655;28;20486;-72
2021/12/10 07:06:17;;;;;;;1.40;1.30;;;12.60;29.40;;;;;;5077355;28;20204;-72
2021/12/10 07:08:47;;;;;;;1.40;1.30;;;12.60;29.40;;;;;;5076179;28;20204;-72
2021/12/10 07:11:17;;;;;;;1.60;1.50;;;12.60;29.40;;;;;;5077422;28;20297;-72
2021/12/10 07:13:50;;;;;;;1.35;1.25;;;12.60;29.40;;;;;;5076910;28;20228;-72
2021/12/10 07:16:20;;;;;;;1.55;1.45;;;12.60;29.40;;;;;;5076652;28;20254;-71
2021/12/10 07:18:48;;;;;;;1.33;1.23;;;12.60;29.40;;;;;;5076062;28;20295;-72
2021/12/10 07:21:17;;;;;;;1.60;1.50;;;12.60;29.40;;;;;;5037531;28;20632;-71
2021/12/10 07:23:46;;;;;;;1.40;1.30;;;12.60;29.40;;;;;;5036906;28;20198;-72
2021/12/10 07:26:14;;;;;;;1.55;1.45;;;12.60;29.40;;;;;;5036630;28;20328;-72
2021/12/10 07:28:42;;;;;;;1.80;1.63;;;12.60;29.40;;;;;;5036340;28;20210;-72
2021/12/10 07:31:10;;;;;;;1.40;1.30;;;12.60;29.40;;;;;;5036661;28;20213;-71
2021/12/10 07:33:38;;;;;;;1.55;1.45;;;12.50;29.30;;;;;;5036894;28;20252;-71
2021/12/10 07:36:07;;;;;;;1.35;1.25;;;12.50;29.30;;;;;;5036953;28;20206;-72
2021/12/10 07:38:36;;;;;;;1.50;1.40;;;12.50;29.30;;;;;;5036793;28;20204;-72
2021/12/10 07:41:06;;;;;;;1.65;1.55;;;12.50;29.30;;;;;;5036729;28;20224;-71
2021/12/10 07:43:34;;;;;;;1.33;1.23;;;12.50;29.30;;;;;;5036494;28;20203;-72
2021/12/10 07:46:01;;;;;;;1.33;1.23;;;12.50;29.30;;;;;;5036347;28;20206;-72
2021/12/10 07:48:29;;;;;;;1.45;1.35;;;12.50;29.40;;;;;;5074537;28;20201;-72
2021/12/10 07:51:00;;;;;;;1.35;1.25;;;12.50;29.40;;;;;;5075703;28;20266;-72
2021/12/10 07:53:29;;;;;;;1.35;1.25;;;12.50;29.40;;;;;;5075341;28;20547;-72
2021/12/10 07:55:58;;;;;;;1.40;1.30;;;12.50;29.40;;;;;;5069134;28;20212;-72
2021/12/10 07:58:28;;;;;;;1.35;1.25;;;12.50;29.40;;;;;;5075511;28;20215;-72
2021/12/10 08:00:55;;;;;;;1.40;1.30;;;12.50;29.40;;;;;;5075850;28;20274;-72
2021/12/10 08:03:23;;;;;;;1.40;1.30;;;12.50;30.00;;;;;;5075636;28;20215;-72
2021/12/10 08:05:53;;;;;;;1.42;1.33;;;12.50;29.40;;;;;;5075927;28;20227;-72
2021/12/10 08:08:20;;;;;;;1.35;1.25;;;12.50;29.40;;;;;;5075769;28;20602;-72
2021/12/10 08:10:48;;;;;;;1.27;1.17;;;12.50;29.40;;;;;;5075115;28;20331;-71
2021/12/10 08:13:16;;;;;;;1.23;1.13;;;12.40;29.30;;;;;;5075490;28;20220;-72
2021/12/10 08:15:45;;;;;;;1.40;1.30;;;12.40;29.30;;;;;;5056754;28;20643;-71
2021/12/10 08:18:13;;;;;;;1.30;1.20;;;12.40;29.40;;;;;;5054712;28;20224;-71
2021/12/10 08:20:41;;;;;;;1.30;1.20;;;12.40;29.30;;;;;;5054889;28;20726;-72
2021/12/10 08:23:09;;;;;;;1.30;1.20;;;12.40;29.30;;;;;;5054641;28;20217;-72
2021/12/10 08:25:37;;;;;;;1.30;1.20;;;12.40;29.30;;;;;;5055415;28;20574;-71
2021/12/10 08:28:06;;;;;;;1.25;1.15;;;12.40;29.40;;;;;;5055938;28;20572;-72
2021/12/10 08:30:35;;;;;;;1.35;1.25;;;12.40;29.40;;;;;;5056110;28;20216;-73
2021/12/10 08:33:11;;;;;;;1.30;1.20;;;12.40;29.40;;;;;;5055736;28;20212;-72
2021/12/10 08:35:40;;;;;;;11.27;9.80;;;12.40;29.40;;;;;;5055791;28;20584;-72
2021/12/10 08:38:08;;;;;;;14.60;12.82;;;12.40;29.50;;;;;;5055604;28;20216;-72
2021/12/10 08:40:38;;;;;;;11.80;10.60;;;12.40;29.50;;;;;;5054476;28;20271;-72
2021/12/10 08:43:07;;;;;;;12.98;9.85;;;12.40;29.50;;;;;;5069222;28;20192;-72
2021/12/10 08:45:36;;;;;;;10.52;8.75;;;12.40;29.50;;;;;;5072624;28;20289;-72
2021/12/10 08:48:05;;;;;;;10.18;8.63;;;12.40;29.60;;;;;;5055842;28;20548;-72
2021/12/10 08:50:34;;;;;;;10.38;8.50;;;12.40;29.60;;;;;;5051846;28;20228;-72
2021/12/10 08:53:05;;;;;;;9.15;7.28;;;12.40;29.60;;;;;;5052156;28;20217;-72
2021/12/10 08:55:34;;;;;;;8.52;7.38;;;12.40;29.80;;;;;;5051889;28;20239;-72
2021/12/10 08:58:01;;;;;;;7.60;6.88;;;12.40;29.80;;;;;;5052477;28;20212;-72
2021/12/10 09:00:30;;;;;;;8.30;6.90;;;12.50;29.90;;;;;;5053118;28;20480;-72
2021/12/10 09:02:59;;;;;;;8.10;6.65;;;12.50;30.60;;;;;;5052123;28;20212;-72
2021/12/10 09:05:29;;;;;;;8.85;6.57;;;12.50;29.90;;;;;;5051243;28;20212;-72
2021/12/10 09:07:58;;;;;;;8.55;6.00;;;12.50;30.00;;;;;;5051722;28;20216;-73
2021/12/10 09:10:29;;;;;;;7.57;5.97;;;12.50;30.00;;;;;;5065846;28;20426;-72
2021/12/10 09:12:56;;;;;;;8.07;5.70;;;12.50;30.00;;;;;;5071929;28;20212;-72
2021/12/10 09:15:26;;;;;;;8.45;5.63;;;12.50;30.00;;;;;;5071163;28;20638;-72
2021/12/10 09:17:58;;;;;;;6.47;5.30;;;12.50;30.10;;;;;;5071831;28;20446;-72
2021/12/10 09:20:31;;;;;;;7.07;5.40;;;12.50;30.10;;;;;;5072545;28;20200;-72
2021/12/10 09:22:59;;;;;;;7.15;5.18;;;12.60;30.40;;;;;;5072402;28;20196;-72
2021/12/10 09:25:27;;;;;;;6.70;4.88;;;12.60;30.50;;;;;;5070170;28;20587;-72
2021/12/10 09:27:55;;;;;;;7.88;4.07;;;12.60;30.60;;;;;;5071142;28;20607;-72
2021/12/10 09:30:25;;;;;;;4.82;4.32;;;12.60;30.70;;;;;;5071477;28;20204;-72
2021/12/10 09:32:52;;;;;;;4.85;3.90;;;12.60;30.80;;;;;;5072448;28;20263;-72
2021/12/10 09:35:21;;;;;;;5.18;3.65;;;12.60;30.70;;;;;;5073006;28;20216;-72
2021/12/10 09:37:50;;;;;;;5.00;3.78;;;12.70;31.00;;;;;;5073536;28;20472;-72
2021/12/10 09:40:21;;;;;;;6.57;3.80;;;12.70;31.10;;;;;;5073916;28;20208;-72
2021/12/10 09:42:49;;;;;;;4.90;4.40;;;12.70;31.30;;;;;;5073957;28;20208;-72
2021/12/10 09:45:19;;;;;;;4.47;3.88;;;12.70;31.40;;;;;;5072182;28;20208;-72
2021/12/10 09:47:47;;;;;;;4.60;3.55;;;12.80;31.20;;;;;;5074526;28;20338;-72
2021/12/10 09:50:16;;;;;;;5.57;3.65;;;12.80;31.30;;;;;;5074413;28;20215;-72
2021/12/10 09:52:46;;;;;;;3.85;3.38;;;12.80;31.40;;;;;;5074319;28;20209;-72
2021/12/10 09:55:17;;;;;;;4.03;3.40;;;12.80;31.30;;;;;;5073816;28;20778;-72
2021/12/10 09:57:47;;;;;;;4.72;3.50;;;12.80;31.20;;;;;;5073773;28;20204;-72
2021/12/10 10:00:18;;;;;;;4.20;3.33;;;12.80;31.10;;;;;;5073487;28;20216;-72
2021/12/10 10:02:45;;;;;;;3.78;3.40;;;12.80;31.10;;;;;;5073690;28;20527;-72
2021/12/10 10:05:13;;;;;;;3.25;2.95;;;12.90;31.30;;;;;;5073299;28;20196;-72
2021/12/10 10:07:41;;;;;;;3.20;2.90;;;12.90;31.20;;;;;;5073493;28;20227;-72
2021/12/10 10:10:14;;;;;;;3.50;3.20;;;12.90;31.30;;;;;;5073738;28;20208;-72
2021/12/10 10:12:45;;;;;;;3.85;2.75;;;12.90;31.20;;;;;;5074055;28;20223;-72
2021/12/10 10:15:17;;;;;;;3.35;3.05;;;12.90;31.20;;;;;;5073247;28;20491;-72
2021/12/10 10:17:45;;;;;;;4.15;3.13;;;12.90;31.30;;;;;;5076072;28;20200;-72
2021/12/10 10:20:15;;;;;;;3.28;2.80;;;13.00;31.30;;;;;;5077541;28;20215;-72
2021/12/10 10:22:44;;;;;;;3.63;2.70;;;12.90;31.40;;;;;;5077752;28;20227;-72
2021/12/10 10:25:12;;;;;;;2.60;2.40;;;13.00;31.30;;;;;;5077652;28;20295;-72
2021/12/10 10:27:42;;;;;;;3.65;2.22;;;13.00;31.30;;;;;;5076513;28;20209;-72
2021/12/10 10:30:14;;;;;;;4.47;2.40;;;13.00;31.50;;;;;;5077233;28;20215;-72
2021/12/10 10:32:45;;;;;;;2.97;2.30;;;13.00;31.50;;;;;;5076378;28;20207;-72
2021/12/10 10:35:17;;;;;;;3.55;2.33;;;13.00;31.20;;;;;;5077736;28;20319;-72
2021/12/10 10:37:46;;;;;;;3.00;2.67;;;13.10;31.30;;;;;;5077664;28;20234;-72
2021/12/10 10:40:16;;;;;;;2.33;2.08;;;13.10;31.30;;;;;;5077160;28;20215;-72
2021/12/10 10:42:44;;;;;;;3.08;2.40;;;13.10;31.20;;;;;;5077185;28;20215;-72
2021/12/10 10:45:17;;;;;;;2.45;2.03;;;13.10;31.10;;;;;;5066445;28;20259;-72
2021/12/10 10:47:48;;;;;;;2.20;2.00;;;13.10;31.10;;;;;;5075952;28;20208;-73
2021/12/10 10:50:22;;;;;;;2.67;2.25;;;13.10;31.10;;;;;;5076709;28;20552;-72
2021/12/10 10:52:54;;;;;;;2.33;2.05;;;13.10;30.90;;;;;;5076315;28;20294;-72
2021/12/10 10:55:24;;;;;;;3.28;2.08;;;13.10;30.90;;;;;;5076743;28;20216;-72
2021/12/10 10:57:56;;;;;;;2.22;1.80;;;13.20;30.90;;;;;;5075951;28;20200;-72
2021/12/10 11:00:32;;;;;;;4.78;2.00;;;13.10;30.60;;;;;;5076233;28;20595;-72
2021/12/10 11:03:04;;;;;;;3.72;2.40;;;13.20;30.70;;;;;;5076232;28;20599;-72
2021/12/10 11:05:32;;;;;;;2.40;2.00;;;13.20;30.60;;;;;;5076061;28;20463;-72
2021/12/10 11:08:02;;;;;;;2.55;1.90;;;13.20;30.60;;;;;;5075802;28;20219;-72
2021/12/10 11:10:32;;;;;;;3.65;2.17;;;13.20;30.50;;;;;;5075571;28;20239;-72
2021/12/10 11:13:17;;;;;;;2.63;2.13;;;13.20;30.50;;;;;;5076796;28;20212;-72
2021/12/10 11:15:58;;;;;;;4.32;2.17;;;13.20;30.40;;;;;;5076131;28;20285;-72
2021/12/10 11:18:26;;;;;;;4.95;1.98;;;13.20;30.60;;;;;;5076002;28;20204;-72
2021/12/10 11:20:53;;;;;;;3.63;1.73;;;13.30;30.60;;;;;;5076044;28;20209;-72
2021/12/10 11:23:25;;;;;;;3.50;1.90;;;13.30;30.70;;;;;;5075008;28;20216;-72
2021/12/10 11:25:53;;;;;;;4.90;1.90;;;13.30;30.70;;;;;;5075628;28;20204;-72
2021/12/10 11:28:26;;;;;;;1.92;1.73;;;13.30;30.60;;;;;;5073954;28;20212;-72
2021/12/10 11:31:02;;;;;;;3.22;1.63;;;13.30;30.70;;;;;;5074858;28;20357;-72
2021/12/10 11:33:31;;;;;;;4.38;1.90;;;13.30;30.70;;;;;;5075737;28;20534;-72
2021/12/10 11:36:02;;;;;;;2.70;1.80;;;13.30;30.80;;;;;;5075221;28;20235;-72
2021/12/10 11:38:31;;;;;;;2.70;1.92;;;13.30;30.80;;;;;;5074807;28;20488;-72
2021/12/10 11:41:01;;;;;;;2.80;2.00;;;13.30;30.90;;;;;;5075508;28;20204;-72
2021/12/10 11:43:52;;;;;;;2.08;1.77;;;13.30;30.90;;;;;;5075931;28;20208;-72
2021/12/10 11:49:22;;;;;;;2.67;2.15;;;13.40;31.00;;;;;;5069275;28;20200;-73
2021/12/10 11:51:55;;;;;;;2.42;1.52;;;13.40;31.10;;;;;;5075965;28;20204;-72
2021/12/10 11:54:26;;;;;;;2.25;1.73;;;13.40;31.00;;;;;;5075711;28;20192;-72
2021/12/10 11:56:57;;;;;;;2.67;1.65;;;13.40;31.00;;;;;;5075450;28;20204;-72
2021/12/10 11:59:33;;;;;;;2.95;1.70;;;13.40;31.10;;;;;;5076270;28;20204;-72
2021/12/10 12:02:08;;;;;;;4.20;1.80;;;13.40;30.90;;;;;;5074693;28;20207;-72
2021/12/10 12:04:41;;;;;;;2.88;1.60;;;13.40;30.90;;;;;;5074097;28;20204;-72
2021/12/10 12:07:20;;;;;;;2.83;1.77;;;13.40;30.80;;;;;;5074464;28;20204;-72
2021/12/10 12:09:51;;;;;;;3.17;1.50;;;13.40;30.90;;;;;;5072680;28;20204;-72
2021/12/10 12:12:22;;;;;;;1.90;1.50;;;13.40;30.80;;;;;;5072536;28;20655;-72
2021/12/10 12:14:53;;;;;;;2.05;1.70;;;13.40;30.80;;;;;;5072850;28;20224;-72
2021/12/10 12:17:36;;;;;;;1.70;1.60;;;13.40;30.80;;;;;;5074323;28;20212;-72
2021/12/10 12:20:11;;;;;;;2.55;1.67;;;13.40;30.60;;;;;;5072850;28;20595;-72
2021/12/10 12:25:30;;;;;;;1.88;1.30;;;13.40;30.60;;;;;;5054122;28;20861;-72
2021/12/10 12:28:02;;;;;;;1.65;1.55;;;13.40;30.50;;;;;;5054122;28;20489;-72
2021/12/10 12:30:30;;;;;;;2.20;1.40;;;13.40;30.40;;;;;;5053569;28;20209;-72
2021/12/10 12:32:58;;;;;;;2.92;1.90;;;13.40;30.40;;;;;;5054632;28;20213;-72
2021/12/10 12:35:29;;;;;;;2.35;1.60;;;13.40;30.40;;;;;;5073560;28;20266;-72
2021/12/10 12:38:09;;;;;;;1.90;1.50;;;13.40;30.30;;;;;;5073688;28;20240;-72
2021/12/10 12:40:38;;;;;;;1.48;1.23;;;13.40;30.30;;;;;;5073510;28;20208;-72
2021/12/10 12:43:06;;;;;;;1.80;1.63;;;13.40;30.30;;;;;;5074023;28;20208;-72
2021/12/10 12:45:37;;;;;;;3.00;1.42;;;13.40;30.20;;;;;;5073190;28;20872;-72
2021/12/10 12:48:08;;;;;;;2.20;1.33;;;13.40;30.20;;;;;;5073518;28;20785;-72
2021/12/10 12:50:36;;;;;;;1.40;1.25;;;13.40;30.20;;;;;;5055808;28;20232;-73
2021/12/10 12:53:07;;;;;;;1.98;1.30;;;13.40;30.10;;;;;;5053389;28;20626;-72
2021/12/10 12:55:44;;;;;;;1.77;1.60;;;13.40;30.10;;;;;;5041989;28;20505;-72
2021/12/10 12:58:22;;;;;;;2.13;1.20;;;13.30;30.10;;;;;;5052722;28;20266;-72
2021/12/10 13:00:58;;;;;;;1.63;1.40;;;13.30;30.00;;;;;;5052646;28;20278;-72
2021/12/10 13:03:30;;;;;;;1.38;1.23;;;13.40;30.00;;;;;;5052964;28;20278;-72
2021/12/10 13:06:02;;;;;;;1.80;1.40;;;13.30;30.00;;;;;;5052713;28;20222;-72
2021/12/10 13:08:35;;;;;;;1.30;1.20;;;13.30;30.00;;;;;;5053260;28;20770;-72
2021/12/10 13:11:09;;;;;;;1.92;1.35;;;13.30;30.00;;;;;;5052632;28;20328;-72
2021/12/10 13:13:43;;;;;;;2.75;1.40;;;13.30;30.00;;;;;;5052481;28;20225;-72